sensor_id;sensor_type;location;lat;lon;timestamp;temperature;humidity
68691;DHT22;55675;49.588;8.640;2023-03-19T00:01:52;12.10;73.80
68691;DHT22;55675;49.588;8.640;2023-03-19T00:04:18;12.10;73.80
68691;DHT22;55675;49.588;8.640;2023-03-19T00:06:43;12.00;74.50
68691;DHT22;55675;49.588;8.640;2023-03-19T00:09:09;12.00;74.10
68691;DHT22;55675;49.588;8.640;2023-03-19T00:11:35;12.00;74.30
68691;DHT22;55675;49.588;8.640;2023-03-19T00:14:00;12.00;74.30
68691;DHT22;55675;49.588;8.640;2023-03-19T00:16:26;12.00;74.30
68691;DHT22;55675;49.588;8.640;2023-03-19T00:18:51;12.00;74.40
68691;DHT22;55675;49.588;8.640;2023-03-19T00:21:18;12.10;74.30
68691;DHT22;55675;49.588;8.640;2023-03-19T00:23:44;12.10;74.40
68691;DHT22;55675;49.588;8.640;2023-03-19T00:26:10;12.10;74.20
68691;DHT22;55675;49.588;8.640;2023-03-19T00:28:36;12.10;74.20
68691;DHT22;55675;49.588;8.640;2023-03-19T00:31:35;12.10;74.00
68691;DHT22;55675;49.588;8.640;2023-03-19T00:33:55;12.10;74.10
68691;DHT22;55675;49.588;8.640;2023-03-19T00:36:21;12.10;74.00
68691;DHT22;55675;49.588;8.640;2023-03-19T00:38:47;12.10;74.10
68691;DHT22;55675;49.588;8.640;2023-03-19T00:41:13;12.10;74.10
68691;DHT22;55675;49.588;8.640;2023-03-19T00:43:38;12.10;74.10
68691;DHT22;55675;49.588;8.640;2023-03-19T00:46:04;12.20;74.10
68691;DHT22;55675;49.588;8.640;2023-03-19T00:48:30;12.20;74.00
68691;DHT22;55675;49.588;8.640;2023-03-19T00:51:00;12.30;73.90
68691;DHT22;55675;49.588;8.640;2023-03-19T00:53:26;12.30;73.80
68691;DHT22;55675;49.588;8.640;2023-03-19T00:55:51;12.30;73.80
68691;DHT22;55675;49.588;8.640;2023-03-19T00:58:17;12.30;74.30
68691;DHT22;55675;49.588;8.640;2023-03-19T01:00:42;12.30;74.30
68691;DHT22;55675;49.588;8.640;2023-03-19T01:03:08;12.30;74.70
68691;DHT22;55675;49.588;8.640;2023-03-19T01:05:33;12.30;74.80
68691;DHT22;55675;49.588;8.640;2023-03-19T01:07:59;12.20;74.90
68691;DHT22;55675;49.588;8.640;2023-03-19T01:10:25;12.20;75.00
68691;DHT22;55675;49.588;8.640;2023-03-19T01:12:50;12.20;75.10
68691;DHT22;55675;49.588;8.640;2023-03-19T01:15:16;12.20;75.10
68691;DHT22;55675;49.588;8.640;2023-03-19T01:17:41;12.20;75.40
68691;DHT22;55675;49.588;8.640;2023-03-19T01:20:08;12.20;75.30
68691;DHT22;55675;49.588;8.640;2023-03-19T01:22:40;12.30;75.40
68691;DHT22;55675;49.588;8.640;2023-03-19T01:25:07;12.30;75.40
68691;DHT22;55675;49.588;8.640;2023-03-19T01:27:32;12.30;75.50
68691;DHT22;55675;49.588;8.640;2023-03-19T01:29:58;12.30;76.70
68691;DHT22;55675;49.588;8.640;2023-03-19T01:32:23;12.30;76.60
68691;DHT22;55675;49.588;8.640;2023-03-19T01:34:49;12.30;76.10
68691;DHT22;55675;49.588;8.640;2023-03-19T01:37:14;12.30;76.10
68691;DHT22;55675;49.588;8.640;2023-03-19T01:39:40;12.30;76.00
68691;DHT22;55675;49.588;8.640;2023-03-19T01:42:05;12.30;75.80
68691;DHT22;55675;49.588;8.640;2023-03-19T01:44:32;12.30;75.90
68691;DHT22;55675;49.588;8.640;2023-03-19T01:46:59;12.20;75.90
68691;DHT22;55675;49.588;8.640;2023-03-19T01:49:26;12.20;77.20
68691;DHT22;55675;49.588;8.640;2023-03-19T01:51:52;12.10;76.90
68691;DHT22;55675;49.588;8.640;2023-03-19T01:54:18;12.00;76.70
68691;DHT22;55675;49.588;8.640;2023-03-19T01:56:45;11.90;76.70
68691;DHT22;55675;49.588;8.640;2023-03-19T01:59:19;11.90;76.90
68691;DHT22;55675;49.588;8.640;2023-03-19T02:01:55;11.90;77.40
68691;DHT22;55675;49.588;8.640;2023-03-19T02:04:21;11.80;77.30
68691;DHT22;55675;49.588;8.640;2023-03-19T02:06:46;11.80;77.30
68691;DHT22;55675;49.588;8.640;2023-03-19T02:09:12;11.80;77.30
68691;DHT22;55675;49.588;8.640;2023-03-19T02:11:38;11.70;77.40
68691;DHT22;55675;49.588;8.640;2023-03-19T02:14:04;11.70;77.50
68691;DHT22;55675;49.588;8.640;2023-03-19T02:16:30;11.70;77.70
68691;DHT22;55675;49.588;8.640;2023-03-19T02:18:55;11.60;77.90
68691;DHT22;55675;49.588;8.640;2023-03-19T02:21:21;11.60;78.00
68691;DHT22;55675;49.588;8.640;2023-03-19T02:23:55;11.50;78.10
68691;DHT22;55675;49.588;8.640;2023-03-19T02:26:22;11.50;78.20
68691;DHT22;55675;49.588;8.640;2023-03-19T02:28:48;11.40;78.50
68691;DHT22;55675;49.588;8.640;2023-03-19T02:31:14;11.30;78.80
68691;DHT22;55675;49.588;8.640;2023-03-19T02:33:40;11.20;79.40
68691;DHT22;55675;49.588;8.640;2023-03-19T02:36:07;11.20;79.80
68691;DHT22;55675;49.588;8.640;2023-03-19T02:38:34;11.10;80.10
68691;DHT22;55675;49.588;8.640;2023-03-19T02:41:01;11.10;80.30
68691;DHT22;55675;49.588;8.640;2023-03-19T02:43:29;11.10;80.50
68691;DHT22;55675;49.588;8.640;2023-03-19T02:45:55;11.10;80.70
68691;DHT22;55675;49.588;8.640;2023-03-19T02:48:20;11.10;80.90
68691;DHT22;55675;49.588;8.640;2023-03-19T02:50:46;11.20;81.00
68691;DHT22;55675;49.588;8.640;2023-03-19T02:53:11;11.30;81.10
68691;DHT22;55675;49.588;8.640;2023-03-19T02:55:36;11.40;81.00
68691;DHT22;55675;49.588;8.640;2023-03-19T02:58:02;11.40;81.20
68691;DHT22;55675;49.588;8.640;2023-03-19T03:00:27;11.50;82.20
68691;DHT22;55675;49.588;8.640;2023-03-19T03:02:54;11.50;81.20
68691;DHT22;55675;49.588;8.640;2023-03-19T03:05:20;11.40;81.70
68691;DHT22;55675;49.588;8.640;2023-03-19T03:07:46;11.50;81.90
68691;DHT22;55675;49.588;8.640;2023-03-19T03:10:12;11.40;81.90
68691;DHT22;55675;49.588;8.640;2023-03-19T03:12:37;11.50;81.70
68691;DHT22;55675;49.588;8.640;2023-03-19T03:15:04;11.50;81.70
68691;DHT22;55675;49.588;8.640;2023-03-19T03:17:29;11.50;81.70
68691;DHT22;55675;49.588;8.640;2023-03-19T03:19:55;11.60;81.80
68691;DHT22;55675;49.588;8.640;2023-03-19T03:22:20;11.60;82.20
68691;DHT22;55675;49.588;8.640;2023-03-19T03:24:46;11.70;82.20
68691;DHT22;55675;49.588;8.640;2023-03-19T03:27:11;11.70;82.10
68691;DHT22;55675;49.588;8.640;2023-03-19T03:29:37;11.80;82.10
68691;DHT22;55675;49.588;8.640;2023-03-19T03:32:02;11.80;82.10
68691;DHT22;55675;49.588;8.640;2023-03-19T03:34:28;11.80;82.20
68691;DHT22;55675;49.588;8.640;2023-03-19T03:36:53;11.90;82.10
68691;DHT22;55675;49.588;8.640;2023-03-19T03:39:19;11.90;82.10
68691;DHT22;55675;49.588;8.640;2023-03-19T03:41:44;12.00;82.20
68691;DHT22;55675;49.588;8.640;2023-03-19T03:44:10;12.10;82.00
68691;DHT22;55675;49.588;8.640;2023-03-19T03:46:35;12.10;81.90
68691;DHT22;55675;49.588;8.640;2023-03-19T03:49:01;12.20;81.70
68691;DHT22;55675;49.588;8.640;2023-03-19T03:51:26;12.20;81.60
68691;DHT22;55675;49.588;8.640;2023-03-19T03:53:52;12.20;81.40
68691;DHT22;55675;49.588;8.640;2023-03-19T03:56:17;12.20;81.30
68691;DHT22;55675;49.588;8.640;2023-03-19T03:58:43;12.30;81.30
68691;DHT22;55675;49.588;8.640;2023-03-19T04:01:12;12.40;81.30
68691;DHT22;55675;49.588;8.640;2023-03-19T04:03:38;12.40;81.10
68691;DHT22;55675;49.588;8.640;2023-03-19T04:06:05;12.40;80.90
68691;DHT22;55675;49.588;8.640;2023-03-19T04:08:31;12.50;80.80
68691;DHT22;55675;49.588;8.640;2023-03-19T04:10:56;12.50;80.70
68691;DHT22;55675;49.588;8.640;2023-03-19T04:13:22;12.50;80.70
68691;DHT22;55675;49.588;8.640;2023-03-19T04:15:48;12.50;80.60
68691;DHT22;55675;49.588;8.640;2023-03-19T04:18:13;12.60;80.80
68691;DHT22;55675;49.588;8.640;2023-03-19T04:20:39;12.60;80.60
68691;DHT22;55675;49.588;8.640;2023-03-19T04:23:05;12.60;80.60
68691;DHT22;55675;49.588;8.640;2023-03-19T04:25:31;12.60;80.50
68691;DHT22;55675;49.588;8.640;2023-03-19T04:27:56;12.60;80.30
68691;DHT22;55675;49.588;8.640;2023-03-19T04:30:22;12.50;80.50
68691;DHT22;55675;49.588;8.640;2023-03-19T04:32:47;12.50;80.60
68691;DHT22;55675;49.588;8.640;2023-03-19T04:35:13;12.50;80.70
68691;DHT22;55675;49.588;8.640;2023-03-19T04:37:38;12.40;80.70
68691;DHT22;55675;49.588;8.640;2023-03-19T04:40:04;12.50;80.70
68691;DHT22;55675;49.588;8.640;2023-03-19T04:42:30;12.50;80.50
68691;DHT22;55675;49.588;8.640;2023-03-19T04:44:55;12.50;80.40
68691;DHT22;55675;49.588;8.640;2023-03-19T04:47:21;12.50;80.30
68691;DHT22;55675;49.588;8.640;2023-03-19T04:49:46;12.50;80.20
68691;DHT22;55675;49.588;8.640;2023-03-19T04:52:13;12.50;80.20
68691;DHT22;55675;49.588;8.640;2023-03-19T04:54:38;12.50;80.30
68691;DHT22;55675;49.588;8.640;2023-03-19T04:57:04;12.40;80.40
68691;DHT22;55675;49.588;8.640;2023-03-19T04:59:29;12.50;80.50
68691;DHT22;55675;49.588;8.640;2023-03-19T05:01:55;12.50;80.50
68691;DHT22;55675;49.588;8.640;2023-03-19T05:04:20;12.50;80.80
68691;DHT22;55675;49.588;8.640;2023-03-19T05:06:47;12.40;80.60
68691;DHT22;55675;49.588;8.640;2023-03-19T05:09:12;12.40;80.80
68691;DHT22;55675;49.588;8.640;2023-03-19T05:11:38;12.40;80.80
68691;DHT22;55675;49.588;8.640;2023-03-19T05:14:03;12.40;80.90
68691;DHT22;55675;49.588;8.640;2023-03-19T05:16:29;12.40;81.00
68691;DHT22;55675;49.588;8.640;2023-03-19T05:18:55;12.40;81.00
68691;DHT22;55675;49.588;8.640;2023-03-19T05:21:20;12.50;81.00
68691;DHT22;55675;49.588;8.640;2023-03-19T05:23:46;12.50;80.90
68691;DHT22;55675;49.588;8.640;2023-03-19T05:26:16;12.50;80.60
68691;DHT22;55675;49.588;8.640;2023-03-19T05:28:42;12.50;80.60
68691;DHT22;55675;49.588;8.640;2023-03-19T05:31:08;12.60;80.30
68691;DHT22;55675;49.588;8.640;2023-03-19T05:33:33;12.60;80.20
68691;DHT22;55675;49.588;8.640;2023-03-19T05:35:59;12.70;80.00
68691;DHT22;55675;49.588;8.640;2023-03-19T05:38:25;12.70;79.70
68691;DHT22;55675;49.588;8.640;2023-03-19T05:40:50;12.70;79.70
68691;DHT22;55675;49.588;8.640;2023-03-19T05:43:16;12.70;79.50
68691;DHT22;55675;49.588;8.640;2023-03-19T05:45:42;12.80;79.50
68691;DHT22;55675;49.588;8.640;2023-03-19T05:48:07;12.80;79.30
68691;DHT22;55675;49.588;8.640;2023-03-19T05:50:33;12.80;79.40
68691;DHT22;55675;49.588;8.640;2023-03-19T05:52:58;12.80;79.40
68691;DHT22;55675;49.588;8.640;2023-03-19T05:55:24;12.80;79.40
68691;DHT22;55675;49.588;8.640;2023-03-19T05:57:49;12.80;79.40
68691;DHT22;55675;49.588;8.640;2023-03-19T06:00:15;12.80;79.40
68691;DHT22;55675;49.588;8.640;2023-03-19T06:02:41;12.80;79.10
68691;DHT22;55675;49.588;8.640;2023-03-19T06:05:07;12.80;79.10
68691;DHT22;55675;49.588;8.640;2023-03-19T06:07:32;12.80;79.20
68691;DHT22;55675;49.588;8.640;2023-03-19T06:09:58;12.80;79.30
68691;DHT22;55675;49.588;8.640;2023-03-19T06:12:23;12.80;79.10
68691;DHT22;55675;49.588;8.640;2023-03-19T06:14:49;12.80;79.10
68691;DHT22;55675;49.588;8.640;2023-03-19T06:17:14;12.80;79.00
68691;DHT22;55675;49.588;8.640;2023-03-19T06:19:40;12.90;79.00
68691;DHT22;55675;49.588;8.640;2023-03-19T06:22:05;12.90;78.90
68691;DHT22;55675;49.588;8.640;2023-03-19T06:24:31;13.00;78.90
68691;DHT22;55675;49.588;8.640;2023-03-19T06:26:58;13.10;78.80
68691;DHT22;55675;49.588;8.640;2023-03-19T06:29:23;13.10;78.70
68691;DHT22;55675;49.588;8.640;2023-03-19T06:31:48;13.20;78.60
68691;DHT22;55675;49.588;8.640;2023-03-19T06:34:14;13.20;78.40
68691;DHT22;55675;49.588;8.640;2023-03-19T06:36:39;13.30;78.20
68691;DHT22;55675;49.588;8.640;2023-03-19T06:39:05;13.40;77.90
68691;DHT22;55675;49.588;8.640;2023-03-19T06:41:30;13.40;77.60
68691;DHT22;55675;49.588;8.640;2023-03-19T06:43:56;13.50;77.70
68691;DHT22;55675;49.588;8.640;2023-03-19T06:46:21;13.60;77.90
68691;DHT22;55675;49.588;8.640;2023-03-19T06:48:47;13.60;77.90
68691;DHT22;55675;49.588;8.640;2023-03-19T06:51:12;13.60;78.00
68691;DHT22;55675;49.588;8.640;2023-03-19T06:53:38;13.70;78.00
68691;DHT22;55675;49.588;8.640;2023-03-19T06:56:04;13.70;78.10
68691;DHT22;55675;49.588;8.640;2023-03-19T06:58:30;13.80;78.30
68691;DHT22;55675;49.588;8.640;2023-03-19T07:00:55;13.90;78.30
68691;DHT22;55675;49.588;8.640;2023-03-19T07:03:21;14.00;78.20
68691;DHT22;55675;49.588;8.640;2023-03-19T07:05:49;14.10;78.10
68691;DHT22;55675;49.588;8.640;2023-03-19T07:08:14;14.20;78.10
68691;DHT22;55675;49.588;8.640;2023-03-19T07:10:40;14.20;78.00
68691;DHT22;55675;49.588;8.640;2023-03-19T07:13:05;14.30;78.20
68691;DHT22;55675;49.588;8.640;2023-03-19T07:15:31;14.40;78.20
68691;DHT22;55675;49.588;8.640;2023-03-19T07:17:56;14.60;78.10
68691;DHT22;55675;49.588;8.640;2023-03-19T07:20:22;14.70;77.80
68691;DHT22;55675;49.588;8.640;2023-03-19T07:22:50;14.80;77.10
68691;DHT22;55675;49.588;8.640;2023-03-19T07:25:16;14.90;77.00
68691;DHT22;55675;49.588;8.640;2023-03-19T07:27:41;15.00;76.90
68691;DHT22;55675;49.588;8.640;2023-03-19T07:30:07;15.10;76.80
68691;DHT22;55675;49.588;8.640;2023-03-19T07:32:33;15.20;76.40
68691;DHT22;55675;49.588;8.640;2023-03-19T07:34:58;15.20;76.30
68691;DHT22;55675;49.588;8.640;2023-03-19T07:37:24;15.30;76.20
68691;DHT22;55675;49.588;8.640;2023-03-19T07:39:49;15.40;75.90
68691;DHT22;55675;49.588;8.640;2023-03-19T07:42:15;15.40;75.70
68691;DHT22;55675;49.588;8.640;2023-03-19T07:44:40;15.50;75.20
68691;DHT22;55675;49.588;8.640;2023-03-19T07:47:06;15.50;75.20
68691;DHT22;55675;49.588;8.640;2023-03-19T07:49:31;15.50;75.30
68691;DHT22;55675;49.588;8.640;2023-03-19T07:51:57;15.50;73.50
68691;DHT22;55675;49.588;8.640;2023-03-19T07:54:22;15.40;73.40
68691;DHT22;55675;49.588;8.640;2023-03-19T07:56:48;15.40;73.50
68691;DHT22;55675;49.588;8.640;2023-03-19T07:59:13;15.40;73.30
68691;DHT22;55675;49.588;8.640;2023-03-19T08:01:38;15.40;73.20
68691;DHT22;55675;49.588;8.640;2023-03-19T08:04:04;15.50;72.60
68691;DHT22;55675;49.588;8.640;2023-03-19T08:06:29;15.50;72.20
68691;DHT22;55675;49.588;8.640;2023-03-19T08:08:55;15.60;72.50
68691;DHT22;55675;49.588;8.640;2023-03-19T08:11:20;15.60;72.40
68691;DHT22;55675;49.588;8.640;2023-03-19T08:13:46;15.70;71.90
68691;DHT22;55675;49.588;8.640;2023-03-19T08:16:11;15.80;72.30
68691;DHT22;55675;49.588;8.640;2023-03-19T08:18:37;15.90;72.00
68691;DHT22;55675;49.588;8.640;2023-03-19T08:21:03;16.00;71.80
68691;DHT22;55675;49.588;8.640;2023-03-19T08:23:28;16.20;70.30
68691;DHT22;55675;49.588;8.640;2023-03-19T08:25:54;16.40;69.70
68691;DHT22;55675;49.588;8.640;2023-03-19T08:28:21;16.60;68.80
68691;DHT22;55675;49.588;8.640;2023-03-19T08:30:47;16.80;67.20
68691;DHT22;55675;49.588;8.640;2023-03-19T08:33:12;17.00;65.80
68691;DHT22;55675;49.588;8.640;2023-03-19T08:35:38;17.10;64.80
68691;DHT22;55675;49.588;8.640;2023-03-19T08:38:03;17.20;63.80
68691;DHT22;55675;49.588;8.640;2023-03-19T08:40:29;17.30;63.30
68691;DHT22;55675;49.588;8.640;2023-03-19T08:42:55;17.40;62.40
68691;DHT22;55675;49.588;8.640;2023-03-19T08:45:21;17.50;62.00
68691;DHT22;55675;49.588;8.640;2023-03-19T08:47:47;17.60;63.10
68691;DHT22;55675;49.588;8.640;2023-03-19T08:50:13;17.60;61.10
68691;DHT22;55675;49.588;8.640;2023-03-19T08:52:39;17.70;61.20
68691;DHT22;55675;49.588;8.640;2023-03-19T08:55:05;17.80;60.20
68691;DHT22;55675;49.588;8.640;2023-03-19T08:57:31;17.90;60.30
68691;DHT22;55675;49.588;8.640;2023-03-19T08:59:57;18.00;60.30
68691;DHT22;55675;49.588;8.640;2023-03-19T09:02:22;18.00;60.80
68691;DHT22;55675;49.588;8.640;2023-03-19T09:04:48;18.10;59.90
68691;DHT22;55675;49.588;8.640;2023-03-19T09:07:13;18.10;60.00
68691;DHT22;55675;49.588;8.640;2023-03-19T09:09:40;18.20;59.80
68691;DHT22;55675;49.588;8.640;2023-03-19T09:12:06;18.30;59.50
68691;DHT22;55675;49.588;8.640;2023-03-19T09:14:33;18.40;59.70
68691;DHT22;55675;49.588;8.640;2023-03-19T09:16:58;18.50;59.80
68691;DHT22;55675;49.588;8.640;2023-03-19T09:19:24;18.60;58.80
68691;DHT22;55675;49.588;8.640;2023-03-19T09:21:50;18.60;59.40
68691;DHT22;55675;49.588;8.640;2023-03-19T09:24:16;18.60;58.50
68691;DHT22;55675;49.588;8.640;2023-03-19T09:26:41;18.60;57.70
68691;DHT22;55675;49.588;8.640;2023-03-19T09:29:07;18.60;57.20
68691;DHT22;55675;49.588;8.640;2023-03-19T09:31:33;18.60;57.00
68691;DHT22;55675;49.588;8.640;2023-03-19T09:33:59;18.70;57.50
68691;DHT22;55675;49.588;8.640;2023-03-19T09:36:24;18.70;56.90
68691;DHT22;55675;49.588;8.640;2023-03-19T09:38:50;18.70;57.40
68691;DHT22;55675;49.588;8.640;2023-03-19T09:43:54;18.50;55.70
68691;DHT22;55675;49.588;8.640;2023-03-19T09:46:24;18.50;56.10
68691;DHT22;55675;49.588;8.640;2023-03-19T09:48:55;18.40;56.20
68691;DHT22;55675;49.588;8.640;2023-03-19T09:51:27;18.40;56.70
68691;DHT22;55675;49.588;8.640;2023-03-19T09:53:56;18.30;54.80
68691;DHT22;55675;49.588;8.640;2023-03-19T09:56:23;18.40;56.20
68691;DHT22;55675;49.588;8.640;2023-03-19T09:58:49;18.50;53.90
68691;DHT22;55675;49.588;8.640;2023-03-19T10:01:19;18.60;53.10
68691;DHT22;55675;49.588;8.640;2023-03-19T10:06:34;18.90;51.90
68691;DHT22;55675;49.588;8.640;2023-03-19T10:16:59;19.30;51.10
68691;DHT22;55675;49.588;8.640;2023-03-19T10:19:30;19.50;51.50
68691;DHT22;55675;49.588;8.640;2023-03-19T10:22:03;19.60;51.80
68691;DHT22;55675;49.588;8.640;2023-03-19T10:24:32;19.90;51.70
68691;DHT22;55675;49.588;8.640;2023-03-19T10:27:06;20.10;50.60
68691;DHT22;55675;49.588;8.640;2023-03-19T10:29:34;20.20;51.00
68691;DHT22;55675;49.588;8.640;2023-03-19T10:32:16;20.40;52.90
68691;DHT22;55675;49.588;8.640;2023-03-19T10:34:48;20.40;49.70
68691;DHT22;55675;49.588;8.640;2023-03-19T10:37:15;20.50;51.30
68691;DHT22;55675;49.588;8.640;2023-03-19T10:39:43;20.50;50.90
68691;DHT22;55675;49.588;8.640;2023-03-19T10:44:50;20.30;50.70
68691;DHT22;55675;49.588;8.640;2023-03-19T10:47:17;20.20;49.50
68691;DHT22;55675;49.588;8.640;2023-03-19T10:49:47;20.00;48.40
68691;DHT22;55675;49.588;8.640;2023-03-19T10:52:16;19.80;47.70
68691;DHT22;55675;49.588;8.640;2023-03-19T10:54:42;19.60;50.30
68691;DHT22;55675;49.588;8.640;2023-03-19T10:57:17;19.60;52.30
68691;DHT22;55675;49.588;8.640;2023-03-19T10:59:45;19.60;51.60
68691;DHT22;55675;49.588;8.640;2023-03-19T11:02:21;19.60;50.20
68691;DHT22;55675;49.588;8.640;2023-03-19T11:04:47;19.70;50.40
68691;DHT22;55675;49.588;8.640;2023-03-19T11:07:19;19.70;49.90
68691;DHT22;55675;49.588;8.640;2023-03-19T11:09:48;19.70;50.00
68691;DHT22;55675;49.588;8.640;2023-03-19T11:14:40;20.00;49.70
68691;DHT22;55675;49.588;8.640;2023-03-19T11:19:53;20.60;48.30
68691;DHT22;55675;49.588;8.640;2023-03-19T11:22:23;20.80;47.50
68691;DHT22;55675;49.588;8.640;2023-03-19T11:27:18;21.10;47.20
68691;DHT22;55675;49.588;8.640;2023-03-19T11:29:50;21.20;46.30
68691;DHT22;55675;49.588;8.640;2023-03-19T11:34:50;21.70;46.10
68691;DHT22;55675;49.588;8.640;2023-03-19T11:37:24;21.80;45.40
68691;DHT22;55675;49.588;8.640;2023-03-19T11:42:33;22.00;45.40
68691;DHT22;55675;49.588;8.640;2023-03-19T11:47:35;22.30;44.60
68691;DHT22;55675;49.588;8.640;2023-03-19T12:00:40;21.90;42.50
68691;DHT22;55675;49.588;8.640;2023-03-19T12:05:43;21.40;43.00
68691;DHT22;55675;49.588;8.640;2023-03-19T12:16:19;20.50;44.20
68691;DHT22;55675;49.588;8.640;2023-03-19T12:21:19;20.10;45.80
68691;DHT22;55675;49.588;8.640;2023-03-19T12:23:54;20.10;46.80
68691;DHT22;55675;49.588;8.640;2023-03-19T12:34:25;19.60;47.20
68691;DHT22;55675;49.588;8.640;2023-03-19T12:39:39;19.30;51.50
68691;DHT22;55675;49.588;8.640;2023-03-19T12:42:06;19.20;53.30
68691;DHT22;55675;49.588;8.640;2023-03-19T12:44:38;19.10;54.20
68691;DHT22;55675;49.588;8.640;2023-03-19T12:47:09;19.00;54.50
68691;DHT22;55675;49.588;8.640;2023-03-19T12:49:41;19.10;54.10
68691;DHT22;55675;49.588;8.640;2023-03-19T12:52:18;19.10;54.00
68691;DHT22;55675;49.588;8.640;2023-03-19T12:54:55;19.10;53.80
68691;DHT22;55675;49.588;8.640;2023-03-19T12:57:34;19.10;54.00
68691;DHT22;55675;49.588;8.640;2023-03-19T13:00:12;19.10;53.80
68691;DHT22;55675;49.588;8.640;2023-03-19T13:05:28;18.80;53.60
68691;DHT22;55675;49.588;8.640;2023-03-19T13:10:41;18.60;53.70
68691;DHT22;55675;49.588;8.640;2023-03-19T13:13:21;18.40;53.10
68691;DHT22;55675;49.588;8.640;2023-03-19T13:15:48;18.40;52.90
68691;DHT22;55675;49.588;8.640;2023-03-19T13:21:21;18.00;56.70
68691;DHT22;55675;49.588;8.640;2023-03-19T13:23:48;17.80;58.60
68691;DHT22;55675;49.588;8.640;2023-03-19T13:26:15;17.60;60.10
68691;DHT22;55675;49.588;8.640;2023-03-19T13:28:58;17.40;61.20
68691;DHT22;55675;49.588;8.640;2023-03-19T13:31:24;17.20;62.40
68691;DHT22;55675;49.588;8.640;2023-03-19T13:33:50;17.00;64.20
68691;DHT22;55675;49.588;8.640;2023-03-19T13:36:17;16.80;65.30
68691;DHT22;55675;49.588;8.640;2023-03-19T13:38:43;16.70;67.60
68691;DHT22;55675;49.588;8.640;2023-03-19T13:43:55;16.60;68.60
68691;DHT22;55675;49.588;8.640;2023-03-19T13:46:33;16.50;69.00
68691;DHT22;55675;49.588;8.640;2023-03-19T13:49:21;16.40;69.70
68691;DHT22;55675;49.588;8.640;2023-03-19T13:51:49;16.30;69.60
68691;DHT22;55675;49.588;8.640;2023-03-19T13:54:16;16.40;69.90
68691;DHT22;55675;49.588;8.640;2023-03-19T13:59:30;16.40;69.90
68691;DHT22;55675;49.588;8.640;2023-03-19T14:01:56;16.40;71.30
68691;DHT22;55675;49.588;8.640;2023-03-19T14:04:31;16.50;72.40
68691;DHT22;55675;49.588;8.640;2023-03-19T14:06:58;16.50;72.20
68691;DHT22;55675;49.588;8.640;2023-03-19T14:09:40;16.50;72.90
68691;DHT22;55675;49.588;8.640;2023-03-19T14:12:08;16.60;73.30
68691;DHT22;55675;49.588;8.640;2023-03-19T14:14:38;16.60;73.60
68691;DHT22;55675;49.588;8.640;2023-03-19T14:17:04;16.50;73.10
68691;DHT22;55675;49.588;8.640;2023-03-19T14:19:29;16.50;73.40
68691;DHT22;55675;49.588;8.640;2023-03-19T14:24:28;16.30;74.20
68691;DHT22;55675;49.588;8.640;2023-03-19T14:26:53;16.40;74.00
68691;DHT22;55675;49.588;8.640;2023-03-19T14:29:21;16.40;73.60
68691;DHT22;55675;49.588;8.640;2023-03-19T14:31:49;16.50;73.40
68691;DHT22;55675;49.588;8.640;2023-03-19T14:34:25;16.70;73.20
68691;DHT22;55675;49.588;8.640;2023-03-19T14:36:55;16.80;73.20
68691;DHT22;55675;49.588;8.640;2023-03-19T14:39:26;17.00;73.20
68691;DHT22;55675;49.588;8.640;2023-03-19T14:42:00;17.20;73.00
68691;DHT22;55675;49.588;8.640;2023-03-19T14:44:36;17.30;72.60
68691;DHT22;55675;49.588;8.640;2023-03-19T14:52:21;17.80;72.50
68691;DHT22;55675;49.588;8.640;2023-03-19T14:54:47;18.00;71.60
68691;DHT22;55675;49.588;8.640;2023-03-19T14:57:18;18.30;71.40
68691;DHT22;55675;49.588;8.640;2023-03-19T14:59:45;18.50;70.80
68691;DHT22;55675;49.588;8.640;2023-03-19T15:02:21;18.70;70.40
68691;DHT22;55675;49.588;8.640;2023-03-19T15:04:48;19.10;69.70
68691;DHT22;55675;49.588;8.640;2023-03-19T15:07:18;19.60;68.40
68691;DHT22;55675;49.588;8.640;2023-03-19T15:09:44;20.10;67.10
68691;DHT22;55675;49.588;8.640;2023-03-19T15:12:17;20.30;65.60
68691;DHT22;55675;49.588;8.640;2023-03-19T15:14:50;20.20;64.80
68691;DHT22;55675;49.588;8.640;2023-03-19T15:17:20;20.00;64.60
68691;DHT22;55675;49.588;8.640;2023-03-19T15:19:47;19.80;64.60
68691;DHT22;55675;49.588;8.640;2023-03-19T15:24:39;19.90;64.10
68691;DHT22;55675;49.588;8.640;2023-03-19T15:27:15;20.10;61.60
68691;DHT22;55675;49.588;8.640;2023-03-19T15:29:40;20.50;62.50
68691;DHT22;55675;49.588;8.640;2023-03-19T15:32:05;21.20;62.40
68691;DHT22;55675;49.588;8.640;2023-03-19T15:34:31;22.80;60.00
68691;DHT22;55675;49.588;8.640;2023-03-19T15:36:59;24.20;56.80
68691;DHT22;55675;49.588;8.640;2023-03-19T15:39:25;25.40;52.30
68691;DHT22;55675;49.588;8.640;2023-03-19T15:41:52;26.90;50.60
68691;DHT22;55675;49.588;8.640;2023-03-19T15:44:26;29.20;44.50
68691;DHT22;55675;49.588;8.640;2023-03-19T15:46:55;30.00;40.20
68691;DHT22;55675;49.588;8.640;2023-03-19T15:49:23;29.70;40.10
68691;DHT22;55675;49.588;8.640;2023-03-19T15:51:50;29.30;40.00
68691;DHT22;55675;49.588;8.640;2023-03-19T15:54:18;29.50;39.90
68691;DHT22;55675;49.588;8.640;2023-03-19T15:56:44;30.50;34.60
68691;DHT22;55675;49.588;8.640;2023-03-19T15:59:11;32.50;34.10
68691;DHT22;55675;49.588;8.640;2023-03-19T16:01:36;34.30;30.70
68691;DHT22;55675;49.588;8.640;2023-03-19T16:04:07;35.50;29.00
68691;DHT22;55675;49.588;8.640;2023-03-19T16:06:38;36.40;27.30
68691;DHT22;55675;49.588;8.640;2023-03-19T16:11:43;35.80;26.70
68691;DHT22;55675;49.588;8.640;2023-03-19T16:14:38;36.00;25.70
68691;DHT22;55675;49.588;8.640;2023-03-19T16:17:16;35.00;25.90
68691;DHT22;55675;49.588;8.640;2023-03-19T16:19:55;34.40;27.10
68691;DHT22;55675;49.588;8.640;2023-03-19T16:22:28;33.80;27.20
68691;DHT22;55675;49.588;8.640;2023-03-19T16:24:54;32.40;28.90
68691;DHT22;55675;49.588;8.640;2023-03-19T16:27:35;31.00;29.90
68691;DHT22;55675;49.588;8.640;2023-03-19T16:30:01;30.10;31.70
68691;DHT22;55675;49.588;8.640;2023-03-19T16:32:30;29.80;32.00
68691;DHT22;55675;49.588;8.640;2023-03-19T16:34:56;29.10;31.60
68691;DHT22;55675;49.588;8.640;2023-03-19T16:37:23;28.20;32.20
68691;DHT22;55675;49.588;8.640;2023-03-19T16:39:54;27.40;33.40
68691;DHT22;55675;49.588;8.640;2023-03-19T16:42:27;26.50;34.40
68691;DHT22;55675;49.588;8.640;2023-03-19T16:44:52;25.70;35.30
68691;DHT22;55675;49.588;8.640;2023-03-19T16:47:18;25.00;37.60
68691;DHT22;55675;49.588;8.640;2023-03-19T16:49:44;24.30;39.50
68691;DHT22;55675;49.588;8.640;2023-03-19T16:52:13;23.70;40.00
68691;DHT22;55675;49.588;8.640;2023-03-19T16:54:41;23.00;40.50
68691;DHT22;55675;49.588;8.640;2023-03-19T16:57:08;22.40;42.20
68691;DHT22;55675;49.588;8.640;2023-03-19T16:59:34;21.90;42.70
68691;DHT22;55675;49.588;8.640;2023-03-19T17:01:59;21.30;44.70
68691;DHT22;55675;49.588;8.640;2023-03-19T17:04:25;20.70;46.00